createdAt,value
2019-02-26T00:01:55.239Z,4.40
2019-02-26T00:04:41.528Z,4.40
2019-02-26T00:07:29.420Z,4.30
2019-02-26T00:10:14.085Z,4.30
2019-02-26T00:12:59.035Z,4.30
2019-02-26T00:15:45.958Z,4.30
2019-02-26T00:18:31.800Z,4.30
2019-02-26T00:21:16.903Z,4.20
2019-02-26T00:24:01.839Z,4.20
2019-02-26T00:26:46.901Z,4.20
2019-02-26T00:29:32.269Z,4.20
2019-02-26T00:32:18.519Z,4.10
2019-02-26T00:35:04.513Z,4.00
2019-02-26T00:37:51.211Z,4.00
2019-02-26T00:40:37.157Z,3.90
2019-02-26T00:43:25.581Z,3.90
2019-02-26T00:46:10.750Z,3.80
2019-02-26T00:48:56.366Z,3.80
2019-02-26T00:51:45.924Z,3.80
2019-02-26T00:54:32.002Z,3.70
2019-02-26T00:57:16.045Z,3.70
2019-02-26T01:00:03.375Z,3.70
2019-02-26T01:02:48.225Z,3.70
2019-02-26T01:05:34.504Z,3.50
2019-02-26T01:08:20.615Z,3.60
2019-02-26T01:11:07.773Z,3.70
2019-02-26T01:13:52.932Z,3.70
2019-02-26T01:16:41.184Z,3.80
2019-02-26T01:19:26.137Z,3.90
2019-02-26T01:22:11.656Z,4.00
2019-02-26T01:24:58.354Z,4.10
2019-02-26T01:27:47.799Z,4.20
2019-02-26T01:30:31.810Z,4.30
2019-02-26T01:33:17.203Z,4.30
2019-02-26T01:36:02.814Z,4.40
2019-02-26T01:38:49.156Z,4.50
2019-02-26T01:41:35.417Z,4.60
2019-02-26T01:44:20.142Z,4.80
2019-02-26T01:47:05.018Z,5.00
2019-02-26T01:49:51.117Z,5.00
2019-02-26T01:52:36.544Z,5.00
2019-02-26T01:55:22.943Z,5.10
2019-02-26T01:58:08.314Z,5.30
2019-02-26T02:00:55.455Z,5.20
2019-02-26T02:03:41.701Z,5.30
2019-02-26T02:06:27.075Z,5.40
2019-02-26T02:09:14.001Z,5.60
2019-02-26T02:12:00.010Z,5.80
2019-02-26T02:14:46.163Z,5.90
2019-02-26T02:17:33.295Z,6.00
2019-02-26T02:20:20.902Z,6.10
2019-02-26T02:23:07.047Z,6.20
2019-02-26T02:25:52.143Z,6.30
2019-02-26T02:28:37.974Z,6.30
2019-02-26T02:31:24.427Z,6.30
2019-02-26T02:34:09.788Z,6.40
2019-02-26T02:36:54.780Z,6.40
2019-02-26T02:39:39.958Z,6.40
2019-02-26T02:42:25.634Z,6.40
2019-02-26T02:45:16.111Z,6.40
2019-02-26T02:48:00.599Z,6.50
2019-02-26T02:50:45.172Z,6.50
2019-02-26T02:53:32.170Z,6.50
2019-02-26T02:56:17.958Z,6.50
2019-02-26T02:59:05.827Z,6.40
2019-02-26T03:01:52.719Z,6.70
2019-02-26T03:04:37.299Z,6.50
2019-02-26T03:07:26.301Z,6.60
2019-02-26T03:10:12.428Z,6.60
2019-02-26T03:13:00.113Z,6.60
2019-02-26T03:15:44.664Z,6.60
2019-02-26T03:18:29.825Z,6.60
2019-02-26T03:21:16.633Z,6.60
2019-02-26T03:24:03.502Z,6.60
2019-02-26T03:26:50.434Z,6.70
2019-02-26T03:29:35.733Z,6.80
2019-02-26T03:32:22.122Z,6.70
2019-02-26T03:35:09.820Z,6.70
2019-02-26T03:37:57.694Z,6.70
2019-02-26T03:40:40.827Z,6.70
2019-02-26T03:43:28.569Z,6.70
2019-02-26T03:46:13.292Z,6.90
2019-02-26T03:49:02.490Z,6.70
2019-02-26T03:51:44.880Z,6.70
2019-02-26T03:54:30.842Z,6.70
2019-02-26T03:57:16.752Z,6.70
2019-02-26T04:00:14.113Z,6.60
2019-02-26T04:02:59.140Z,6.60
2019-02-26T04:05:44.280Z,6.60
2019-02-26T04:08:30.267Z,6.60
2019-02-26T04:11:19.521Z,6.50
2019-02-26T04:14:02.897Z,6.50
2019-02-26T04:16:48.143Z,6.50
2019-02-26T04:19:33.479Z,6.50
2019-02-26T04:22:30.193Z,6.50
2019-02-26T04:25:24.643Z,6.50
2019-02-26T04:28:15.298Z,6.50
2019-02-26T04:31:22.032Z,6.40
2019-02-26T04:34:10.928Z,6.40
2019-02-26T04:37:01.436Z,6.40
2019-02-26T04:40:14.131Z,6.40
2019-02-26T04:43:38.801Z,6.40
2019-02-26T04:46:31.595Z,6.40
2019-02-26T04:49:15.413Z,6.50
2019-02-26T04:52:02.988Z,6.40
2019-02-26T04:54:47.313Z,6.40
2019-02-26T04:57:33.008Z,6.40
2019-02-26T05:00:18.108Z,6.40
2019-02-26T05:03:05.023Z,6.40
2019-02-26T05:05:56.115Z,6.40
2019-02-26T05:08:40.139Z,6.40
2019-02-26T05:11:31.370Z,6.40
2019-02-26T05:14:15.025Z,6.40
2019-02-26T05:16:58.799Z,6.40
2019-02-26T05:19:48.379Z,6.40
2019-02-26T05:22:33.166Z,6.40
2019-02-26T05:25:19.639Z,6.40
2019-02-26T05:28:06.545Z,6.40
2019-02-26T05:30:51.588Z,6.40
2019-02-26T05:33:36.641Z,6.40
2019-02-26T05:36:23.017Z,6.40
2019-02-26T05:39:08.090Z,6.40
2019-02-26T05:41:55.561Z,6.40
2019-02-26T05:44:40.236Z,6.40
2019-02-26T05:47:26.705Z,6.40
2019-02-26T05:50:16.186Z,6.40
2019-02-26T05:53:01.903Z,6.40
2019-02-26T05:55:48.537Z,6.40
2019-02-26T05:58:33.626Z,6.40
2019-02-26T06:01:21.869Z,6.40
2019-02-26T06:04:07.779Z,6.40
2019-02-26T06:06:56.315Z,6.30
2019-02-26T06:09:41.056Z,6.30
2019-02-26T06:12:26.228Z,6.40
2019-02-26T06:15:12.119Z,6.40
2019-02-26T06:17:59.236Z,6.30
2019-02-26T06:20:44.450Z,6.30
2019-02-26T06:23:31.715Z,6.30
2019-02-26T06:26:17.783Z,6.30
2019-02-26T06:29:03.814Z,6.30
2019-02-26T06:31:52.818Z,6.30
2019-02-26T06:34:37.987Z,6.30
2019-02-26T06:37:23.643Z,6.50
2019-02-26T06:40:11.586Z,6.20
2019-02-26T06:42:56.604Z,6.20
2019-02-26T06:45:43.597Z,6.20
2019-02-26T06:48:29.797Z,6.30
2019-02-26T06:51:15.670Z,6.30
2019-02-26T06:54:01.208Z,6.30
2019-02-26T06:56:48.479Z,6.30
2019-02-26T06:59:34.895Z,6.30
2019-02-26T07:02:20.372Z,6.20
2019-02-26T07:05:08.767Z,6.30
2019-02-26T07:07:56.520Z,6.30
2019-02-26T07:10:40.473Z,6.30
2019-02-26T07:13:25.772Z,6.30
2019-02-26T07:16:10.984Z,6.30
2019-02-26T07:18:56.422Z,6.30
2019-02-26T07:21:42.859Z,6.30
2019-02-26T07:24:29.718Z,6.40
2019-02-26T07:27:15.019Z,6.40
2019-02-26T07:30:01.439Z,6.70
2019-02-26T07:32:48.249Z,6.40
2019-02-26T07:35:35.099Z,6.50
2019-02-26T07:38:22.985Z,6.40
2019-02-26T07:41:07.487Z,6.70
2019-02-26T07:43:54.756Z,6.70
2019-02-26T07:46:40.306Z,6.80
2019-02-26T07:49:26.446Z,6.90
2019-02-26T07:52:11.868Z,7.00
2019-02-26T07:54:57.262Z,6.90
2019-02-26T07:57:43.605Z,7.00
2019-02-26T08:00:30.565Z,6.90
2019-02-26T08:03:17.426Z,6.90
2019-02-26T08:06:06.532Z,7.00
2019-02-26T08:08:52.717Z,7.20
2019-02-26T08:11:39.171Z,7.30
2019-02-26T08:14:25.939Z,7.40
2019-02-26T08:17:11.065Z,7.30
2019-02-26T08:19:56.548Z,7.60
2019-02-26T08:22:42.655Z,7.70
2019-02-26T08:25:27.767Z,7.80
2019-02-26T08:28:15.322Z,7.90
2019-02-26T08:31:00.311Z,8.00
2019-02-26T08:33:50.893Z,8.10
2019-02-26T08:36:34.584Z,8.30
2019-02-26T08:39:20.160Z,8.30
2019-02-26T08:42:07.418Z,8.40
2019-02-26T08:44:54.219Z,8.50
2019-02-26T08:47:40.269Z,8.70
2019-02-26T08:50:28.520Z,8.80
2019-02-26T08:53:12.253Z,8.90
2019-02-26T08:55:58.980Z,9.00
2019-02-26T08:58:45.410Z,9.20
2019-02-26T09:01:30.493Z,9.10
2019-02-26T09:04:17.472Z,9.30
2019-02-26T09:07:06.647Z,9.50
2019-02-26T09:09:54.324Z,9.40
2019-02-26T09:12:40.871Z,9.50
2019-02-26T09:15:26.199Z,9.80
2019-02-26T09:18:12.274Z,9.90
2019-02-26T09:20:57.658Z,9.80
2019-02-26T09:23:42.504Z,9.90
2019-02-26T09:26:27.641Z,9.90
2019-02-26T09:29:15.522Z,9.90
2019-02-26T09:31:59.782Z,10.10
2019-02-26T09:34:46.701Z,10.20
2019-02-26T09:37:31.949Z,10.30
2019-02-26T09:40:20.390Z,10.50
2019-02-26T09:43:06.165Z,10.60
2019-02-26T09:45:52.931Z,10.70
2019-02-26T09:48:40.071Z,10.90
2019-02-26T09:51:25.415Z,10.90
2019-02-26T09:54:12.720Z,10.80
2019-02-26T09:56:57.440Z,11.00
2019-02-26T09:59:42.858Z,11.10
2019-02-26T10:02:28.785Z,11.40
2019-02-26T10:05:16.421Z,11.20
2019-02-26T10:08:05.340Z,11.30
2019-02-26T10:10:51.940Z,11.40
2019-02-26T10:13:39.477Z,11.50
2019-02-26T10:16:25.801Z,11.80
2019-02-26T10:19:12.632Z,12.00
2019-02-26T10:21:59.987Z,11.70
2019-02-26T10:24:44.389Z,11.60
2019-02-26T10:27:33.700Z,11.50
2019-02-26T10:30:17.763Z,11.60
2019-02-26T10:33:07.290Z,11.60
2019-02-26T10:35:52.747Z,11.50
2019-02-26T10:38:38.484Z,11.90
2019-02-26T10:41:25.011Z,11.60
2019-02-26T10:44:11.338Z,11.50
2019-02-26T10:46:58.326Z,11.30
2019-02-26T10:49:44.533Z,11.00
2019-02-26T10:52:30.566Z,11.10
2019-02-26T10:55:17.737Z,10.80
2019-02-26T10:58:08.010Z,10.50
2019-02-26T11:00:53.153Z,10.60
2019-02-26T11:03:43.461Z,10.70
2019-02-26T11:06:26.098Z,10.50
2019-02-26T11:09:14.353Z,10.30
2019-02-26T11:12:00.819Z,10.20
2019-02-26T11:14:45.372Z,10.20
2019-02-26T11:17:31.849Z,10.30
2019-02-26T11:20:18.889Z,10.30
2019-02-26T11:23:07.987Z,10.30
2019-02-26T11:25:52.433Z,10.40
2019-02-26T11:28:40.444Z,10.40
2019-02-26T11:31:25.433Z,10.30
2019-02-26T11:34:13.275Z,10.40
2019-02-26T11:37:00.771Z,10.50
2019-02-26T11:39:44.821Z,10.40
2019-02-26T11:42:30.380Z,10.40
2019-02-26T11:45:19.980Z,10.40
2019-02-26T11:48:08.168Z,10.30
2019-02-26T11:50:54.092Z,10.20
2019-02-26T11:53:39.348Z,10.30
2019-02-26T11:56:25.672Z,10.30
2019-02-26T11:59:12.654Z,10.40
2019-02-26T12:01:59.099Z,10.40
2019-02-26T12:04:46.067Z,10.50
2019-02-26T12:07:34.831Z,10.70
2019-02-26T12:10:22.132Z,10.80
2019-02-26T12:13:07.571Z,10.70
2019-02-26T12:15:52.735Z,10.80
2019-02-26T12:18:39.141Z,10.80
2019-02-26T12:21:25.183Z,10.80
2019-02-26T12:24:12.586Z,10.90
2019-02-26T12:26:57.777Z,10.80
2019-02-26T12:29:45.417Z,10.80
2019-02-26T12:32:29.777Z,10.60
2019-02-26T12:35:17.808Z,10.60
2019-02-26T12:38:17.425Z,10.70
2019-02-26T12:40:50.744Z,10.80
2019-02-26T12:43:40.192Z,10.50
2019-02-26T12:46:25.064Z,10.80
2019-02-26T12:49:12.650Z,10.90
2019-02-26T12:51:59.659Z,10.80
2019-02-26T12:54:44.640Z,10.80
2019-02-26T12:57:31.625Z,10.80
2019-02-26T13:00:23.288Z,10.80
2019-02-26T13:03:12.353Z,11.00
2019-02-26T13:05:55.625Z,11.00
2019-02-26T13:08:46.916Z,11.10
2019-02-26T13:11:28.565Z,11.10
2019-02-26T13:14:14.355Z,11.10
2019-02-26T13:17:00.191Z,11.10
2019-02-26T13:19:49.105Z,11.00
2019-02-26T13:22:33.578Z,11.20
2019-02-26T13:25:21.422Z,11.20
2019-02-26T13:28:06.587Z,11.30
2019-02-26T13:30:52.824Z,11.30
2019-02-26T13:33:41.889Z,11.20
2019-02-26T13:36:25.059Z,11.20
2019-02-26T13:39:10.388Z,11.10
2019-02-26T13:42:03.659Z,11.10
2019-02-26T13:44:42.970Z,11.00
2019-02-26T13:47:28.684Z,11.00
2019-02-26T13:50:20.256Z,11.10
2019-02-26T13:53:05.374Z,11.10
2019-02-26T13:55:50.778Z,11.20
2019-02-26T13:58:36.641Z,11.20
2019-02-26T14:01:21.842Z,11.10
2019-02-26T14:04:07.519Z,11.00
2019-02-26T14:06:52.837Z,11.00
2019-02-26T14:09:38.719Z,11.10
2019-02-26T14:12:24.033Z,11.10
2019-02-26T14:15:12.937Z,11.10
2019-02-26T14:17:59.243Z,11.10
2019-02-26T14:20:45.602Z,11.00
2019-02-26T14:23:34.866Z,11.00
2019-02-26T14:26:18.397Z,11.00
2019-02-26T14:29:05.377Z,11.00
2019-02-26T14:31:50.394Z,11.00
2019-02-26T14:34:36.497Z,10.90
2019-02-26T14:37:21.892Z,10.90
2019-02-26T14:40:10.074Z,10.90
2019-02-26T14:42:55.186Z,10.80
2019-02-26T14:45:39.965Z,10.80
2019-02-26T14:48:25.720Z,10.70
2019-02-26T14:51:11.125Z,10.70
2019-02-26T14:53:56.519Z,10.70
2019-02-26T14:56:41.273Z,10.60
2019-02-26T14:59:26.285Z,10.60
2019-02-26T15:02:11.635Z,10.60
2019-02-26T15:04:57.115Z,10.50
2019-02-26T15:07:42.891Z,10.50
2019-02-26T15:10:27.990Z,10.40
2019-02-26T15:13:13.961Z,10.40
2019-02-26T15:16:02.052Z,10.40
2019-02-26T15:18:52.543Z,10.40
2019-02-26T15:21:38.420Z,10.30
2019-02-26T15:24:23.722Z,10.30
2019-02-26T15:27:08.650Z,10.20
2019-02-26T15:29:54.317Z,10.20
2019-02-26T15:32:39.704Z,10.20
2019-02-26T15:35:26.063Z,10.10
2019-02-26T15:38:11.262Z,10.10
2019-02-26T15:40:56.378Z,10.00
2019-02-26T15:43:41.220Z,10.00
2019-02-26T15:46:28.617Z,10.00
2019-02-26T15:49:13.903Z,9.90
2019-02-26T15:51:58.882Z,9.90
2019-02-26T15:54:44.329Z,9.80
2019-02-26T15:57:31.143Z,9.80
2019-02-26T16:00:19.922Z,9.70
2019-02-26T16:03:05.259Z,9.70
2019-02-26T16:05:50.352Z,9.60
2019-02-26T16:08:35.648Z,9.60
2019-02-26T16:11:23.101Z,9.50
2019-02-26T16:14:09.532Z,9.50
2019-02-26T16:16:57.144Z,9.40
2019-02-26T16:19:43.789Z,9.40
2019-02-26T16:22:29.030Z,9.30
2019-02-26T16:25:14.525Z,9.20
2019-02-26T16:28:01.584Z,9.20
2019-02-26T16:30:47.041Z,9.10
2019-02-26T16:33:34.153Z,9.10
2019-02-26T16:36:20.985Z,9.00
2019-02-26T16:39:07.128Z,9.20
2019-02-26T16:41:53.501Z,8.90
2019-02-26T16:44:39.790Z,8.80
2019-02-26T16:47:25.094Z,8.80
2019-02-26T16:50:13.449Z,8.70
2019-02-26T16:53:00.349Z,8.60
2019-02-26T16:55:48.508Z,8.60
2019-02-26T16:58:35.224Z,8.50
2019-02-26T17:01:19.724Z,8.50
2019-02-26T17:04:07.696Z,8.50
2019-02-26T17:06:53.921Z,8.40
2019-02-26T17:09:39.713Z,8.40
2019-02-26T17:12:26.925Z,8.30
2019-02-26T17:15:18.490Z,8.30
2019-02-26T17:18:03.808Z,8.20
2019-02-26T17:20:48.626Z,8.20
2019-02-26T17:23:34.234Z,8.10
2019-02-26T17:26:20.867Z,8.00
2019-02-26T17:29:06.062Z,8.00
2019-02-26T17:31:51.301Z,8.00
2019-02-26T17:34:36.594Z,7.90
2019-02-26T17:37:21.758Z,7.80
2019-02-26T17:40:10.134Z,7.80
2019-02-26T17:42:55.165Z,7.70
2019-02-26T17:45:40.445Z,7.60
2019-02-26T17:48:25.659Z,7.60
2019-02-26T17:51:11.124Z,7.60
2019-02-26T17:53:57.006Z,7.50
2019-02-26T17:56:42.386Z,7.50
2019-02-26T17:59:27.785Z,7.50
2019-02-26T18:02:13.082Z,7.40
2019-02-26T18:05:00.743Z,7.40
2019-02-26T18:07:45.290Z,7.30
2019-02-26T18:10:30.544Z,7.30
2019-02-26T18:13:15.881Z,7.20
2019-02-26T18:16:08.880Z,7.20
2019-02-26T18:18:47.906Z,7.20
2019-02-26T18:21:33.735Z,7.10
2019-02-26T18:24:18.706Z,7.10
2019-02-26T18:27:03.758Z,7.10
2019-02-26T18:29:48.913Z,7.10
2019-02-26T18:32:35.056Z,7.00
2019-02-26T18:35:20.213Z,7.00
2019-02-26T18:38:05.196Z,6.90
2019-02-26T18:40:50.589Z,6.90
2019-02-26T18:43:35.853Z,6.90
2019-02-26T18:46:21.713Z,6.80
2019-02-26T18:49:06.781Z,6.70
2019-02-26T18:51:52.553Z,6.70
2019-02-26T18:54:37.986Z,6.70
2019-02-26T18:57:24.793Z,6.70
2019-02-26T19:00:13.284Z,6.70
2019-02-26T19:02:58.897Z,6.60
2019-02-26T19:05:44.038Z,6.60
2019-02-26T19:08:29.178Z,6.50
2019-02-26T19:11:16.740Z,6.50
2019-02-26T19:14:01.429Z,6.50
2019-02-26T19:16:46.645Z,6.40
2019-02-26T19:19:31.787Z,6.30
2019-02-26T19:22:16.520Z,6.30
2019-02-26T19:25:01.795Z,6.30
2019-02-26T19:27:47.527Z,6.50
2019-02-26T19:30:36.678Z,6.20
2019-02-26T19:33:21.768Z,6.20
2019-02-26T19:36:06.669Z,6.00
2019-02-26T19:38:51.686Z,6.10
2019-02-26T19:41:37.583Z,6.00
2019-02-26T19:44:22.381Z,5.90
2019-02-26T19:47:07.579Z,5.90
2019-02-26T19:49:52.800Z,5.80
2019-02-26T19:52:38.028Z,5.80
2019-02-26T19:55:26.126Z,5.70
2019-02-26T19:58:11.582Z,5.70
2019-02-26T20:00:56.905Z,5.60
2019-02-26T20:03:41.977Z,5.60
2019-02-26T20:06:27.221Z,5.50
2019-02-26T20:09:12.532Z,5.40
2019-02-26T20:11:57.340Z,5.40
2019-02-26T20:14:42.862Z,5.30
2019-02-26T20:17:27.687Z,5.30
2019-02-26T20:20:17.845Z,5.30
2019-02-26T20:23:06.021Z,5.30
2019-02-26T20:25:51.698Z,5.20
2019-02-26T20:28:36.550Z,5.20
2019-02-26T20:31:22.405Z,5.10
2019-02-26T20:34:08.462Z,5.00
2019-02-26T20:36:54.357Z,5.00
2019-02-26T20:39:40.889Z,4.90
2019-02-26T20:42:26.791Z,5.00
2019-02-26T20:45:17.833Z,4.90
2019-02-26T20:48:22.302Z,4.90
2019-02-26T20:51:07.694Z,4.90
2019-02-26T20:53:52.693Z,4.80
2019-02-26T20:56:38.274Z,4.80
2019-02-26T20:59:23.323Z,4.80
2019-02-26T21:02:09.501Z,4.80
2019-02-26T21:04:54.952Z,4.70
2019-02-26T21:07:40.234Z,4.80
2019-02-26T21:10:25.249Z,4.70
2019-02-26T21:13:10.124Z,4.60
2019-02-26T21:15:57.281Z,4.60
2019-02-26T21:18:42.468Z,4.50
2019-02-26T21:21:28.155Z,4.40
2019-02-26T21:24:13.320Z,4.40
2019-02-26T21:26:59.469Z,4.40
2019-02-26T21:29:45.109Z,4.30
2019-02-26T21:32:30.229Z,4.30
2019-02-26T21:35:15.360Z,4.30
2019-02-26T21:38:05.682Z,4.30
2019-02-26T21:40:51.376Z,4.20
2019-02-26T21:43:41.410Z,4.20
2019-02-26T21:46:26.912Z,4.20
2019-02-26T21:49:12.138Z,4.10
2019-02-26T21:51:58.878Z,4.10
2019-02-26T21:54:45.734Z,4.10
2019-02-26T21:57:31.142Z,4.00
2019-02-26T22:00:22.048Z,4.00
2019-02-26T22:03:07.007Z,3.90
2019-02-26T22:05:52.229Z,3.90
2019-02-26T22:08:38.632Z,3.80
2019-02-26T22:11:23.711Z,3.90
2019-02-26T22:14:08.774Z,3.80
2019-02-26T22:16:54.752Z,3.80
2019-02-26T22:19:40.081Z,3.80
2019-02-26T22:22:27.062Z,3.80
2019-02-26T22:25:15.816Z,3.70
2019-02-26T22:27:59.714Z,3.70
2019-02-26T22:30:44.855Z,3.70
2019-02-26T22:33:30.395Z,3.60
2019-02-26T22:36:16.022Z,3.60
2019-02-26T22:39:01.564Z,3.60
2019-02-26T22:41:47.205Z,3.60
2019-02-26T22:44:32.144Z,3.50
2019-02-26T22:47:17.950Z,3.70
2019-02-26T22:50:07.846Z,3.50
2019-02-26T22:52:53.070Z,3.40
2019-02-26T22:55:42.268Z,3.40
2019-02-26T22:58:29.997Z,3.40
2019-02-26T23:01:20.309Z,3.40
2019-02-26T23:04:05.188Z,3.30
2019-02-26T23:07:10.461Z,3.20
2019-02-26T23:09:58.207Z,3.30
2019-02-26T23:12:43.421Z,3.30
2019-02-26T23:15:28.946Z,3.20
2019-02-26T23:18:18.077Z,3.30
2019-02-26T23:21:03.445Z,3.10
2019-02-26T23:23:48.439Z,3.00
2019-02-26T23:26:34.877Z,2.90
2019-02-26T23:29:20.225Z,3.20
2019-02-26T23:32:06.762Z,2.70
2019-02-26T23:35:04.283Z,2.70
2019-02-26T23:37:49.488Z,2.60
2019-02-26T23:40:34.741Z,2.50
2019-02-26T23:43:19.907Z,2.40
2019-02-26T23:46:05.804Z,2.40
2019-02-26T23:48:51.102Z,2.30
2019-02-26T23:51:36.489Z,2.30
2019-02-26T23:54:21.619Z,2.30
2019-02-26T23:57:06.900Z,2.30
2019-02-26T23:59:52.068Z,2.20
